N284ME KSDF-
Flight info
| Callsign | N284ME |
|---|---|
| Flight time | N/A |
| Altitude | VFR/055 |
| Route | SOUTH |
| Aircraft | C172/L-DOV/C |
Departure
| Time | 2026-05-03 22:19 |
|---|---|
| Airport | Louisville Muhammad Ali International Airport (KSDF) |
Arrival
| Time | N/A |
|---|---|
| Airport | - |
| Time | Latitude | Longitude | Altitude | Speed | Heading |
|---|---|---|---|---|---|
| 2026-05-03 22:13 | 38.18271 | -85.72437 | 491 ft | 0 kts | 222° |
| 2026-05-03 22:15 | 38.18260 | -85.72461 | 491 ft | 4 kts | 264° |
| 2026-05-03 22:15 | 38.18271 | -85.72471 | 491 ft | 7 kts | 341° |
| 2026-05-03 22:16 | 38.18300 | -85.72526 | 492 ft | 8 kts | 253° |
| 2026-05-03 22:16 | 38.18283 | -85.72608 | 491 ft | 13 kts | 253° |
| 2026-05-03 22:16 | 38.18257 | -85.72737 | 491 ft | 13 kts | 254° |
| 2026-05-03 22:16 | 38.18256 | -85.72772 | 491 ft | 0 kts | 301° |
| 2026-05-03 22:17 | 38.18257 | -85.72772 | 491 ft | 0 kts | 298° |
| 2026-05-03 22:17 | 38.18266 | -85.72806 | 491 ft | 7 kts | 293° |
| 2026-05-03 22:17 | 38.18273 | -85.72839 | 491 ft | 2 kts | 271° |
| 2026-05-03 22:17 | 38.18263 | -85.72888 | 490 ft | 9 kts | 251° |
| 2026-05-03 22:18 | 38.18217 | -85.72959 | 488 ft | 11 kts | 177° |
| 2026-05-03 22:18 | 38.18064 | -85.72908 | 486 ft | 46 kts | 163° |
| 2026-05-03 22:18 | 38.17668 | -85.72760 | 581 ft | 65 kts | 175° |
| 2026-05-03 22:18 | 38.17214 | -85.72598 | 772 ft | 65 kts | 173° |
| 2026-05-03 22:19 | 38.16806 | -85.72378 | 997 ft | 66 kts | 157° |
| 2026-05-03 22:19 | 38.16379 | -85.72038 | 1133 ft | 73 kts | 160° |
| 2026-05-03 22:19 | 38.15969 | -85.71747 | 1367 ft | 67 kts | 161° |
| 2026-05-03 22:19 | 38.15568 | -85.71458 | 1592 ft | 62 kts | 164° |
| 2026-05-03 22:20 | 38.15129 | -85.71223 | 1708 ft | 71 kts | 169° |
| 2026-05-03 22:20 | 38.14716 | -85.70898 | 1913 ft | 74 kts | 153° |
| 2026-05-03 22:20 | 38.14383 | -85.70320 | 2062 ft | 88 kts | 128° |
| 2026-05-03 22:20 | 38.14072 | -85.69609 | 2153 ft | 94 kts | 142° |
| 2026-05-03 22:21 | 38.13702 | -85.68813 | 2117 ft | 120 kts | 112° |
| 2026-05-03 22:21 | 38.13505 | -85.67747 | 2104 ft | 127 kts | 110° |
| 2026-05-03 22:21 | 38.13309 | -85.66630 | 2101 ft | 129 kts | 110° |
| 2026-05-03 22:21 | 38.13106 | -85.65554 | 2093 ft | 121 kts | 111° |
| 2026-05-03 22:22 | 38.12912 | -85.64536 | 2093 ft | 116 kts | 111° |
| 2026-05-03 22:22 | 38.12706 | -85.63570 | 2095 ft | 112 kts | 113° |
| 2026-05-03 22:22 | 38.12492 | -85.62618 | 2095 ft | 111 kts | 113° |
| 2026-05-03 22:22 | 38.12272 | -85.61689 | 2099 ft | 109 kts | 114° |
| 2026-05-03 22:23 | 38.12051 | -85.60764 | 2096 ft | 109 kts | 118° |
| 2026-05-03 22:23 | 38.11760 | -85.59892 | 2094 ft | 106 kts | 123° |
| 2026-05-03 22:23 | 38.11431 | -85.59054 | 2098 ft | 106 kts | 126° |
| 2026-05-03 22:23 | 38.11099 | -85.58216 | 2098 ft | 106 kts | 128° |
| 2026-05-03 22:24 | 38.10762 | -85.57380 | 2091 ft | 106 kts | 127° |
| 2026-05-03 22:24 | 38.10427 | -85.56553 | 2091 ft | 105 kts | 126° |
| 2026-05-03 22:24 | 38.10087 | -85.55720 | 2092 ft | 105 kts | 126° |
| 2026-05-03 22:24 | 38.09747 | -85.54901 | 2097 ft | 104 kts | 126° |
| 2026-05-03 22:25 | 38.09411 | -85.54091 | 2101 ft | 104 kts | 126° |
| 2026-05-03 22:25 | 38.09024 | -85.53329 | 2090 ft | 98 kts | 149° |
| 2026-05-03 22:25 | 38.08440 | -85.53052 | 2097 ft | 87 kts | 181° |
| 2026-05-03 22:25 | 38.07845 | -85.53031 | 2090 ft | 85 kts | 186° |
| 2026-05-03 22:26 | 38.07246 | -85.53037 | 2100 ft | 85 kts | 187° |
| 2026-05-03 22:26 | 38.06644 | -85.53037 | 2095 ft | 85 kts | 187° |
| 2026-05-03 22:26 | 38.06037 | -85.53040 | 2093 ft | 89 kts | 187° |
| 2026-05-03 22:26 | 38.05404 | -85.53048 | 2096 ft | 92 kts | 187° |
| 2026-05-03 22:27 | 38.04760 | -85.53056 | 2102 ft | 94 kts | 187° |
| 2026-05-03 22:27 | 38.04090 | -85.53057 | 2101 ft | 96 kts | 186° |
| 2026-05-03 22:27 | 38.03417 | -85.53055 | 2094 ft | 96 kts | 187° |
| 2026-05-03 22:27 | 38.02752 | -85.53055 | 2092 ft | 96 kts | 187° |
| 2026-05-03 22:28 | 38.02080 | -85.53059 | 2096 ft | 96 kts | 186° |
| 2026-05-03 22:28 | 38.01408 | -85.53060 | 2096 ft | 96 kts | 186° |
| 2026-05-03 22:28 | 38.00732 | -85.53059 | 2090 ft | 96 kts | 187° |
| 2026-05-03 22:28 | 38.00074 | -85.53058 | 2199 ft | 92 kts | 186° |
| 2026-05-03 22:29 | 37.99441 | -85.53056 | 2313 ft | 91 kts | 186° |
| 2026-05-03 22:29 | 37.98808 | -85.53062 | 2429 ft | 91 kts | 186° |
| 2026-05-03 22:29 | 37.98173 | -85.53069 | 2556 ft | 90 kts | 186° |
| 2026-05-03 22:29 | 37.97547 | -85.53075 | 2677 ft | 90 kts | 186° |
| 2026-05-03 22:30 | 37.96923 | -85.53085 | 2798 ft | 90 kts | 186° |
| 2026-05-03 22:30 | 37.96295 | -85.53091 | 2917 ft | 90 kts | 186° |
| 2026-05-03 22:30 | 37.95675 | -85.53096 | 3077 ft | 87 kts | 185° |
| 2026-05-03 22:30 | 37.95083 | -85.53097 | 3243 ft | 84 kts | 186° |
| 2026-05-03 22:31 | 37.94499 | -85.53096 | 3411 ft | 83 kts | 186° |
| 2026-05-03 22:31 | 37.93926 | -85.53092 | 3584 ft | 82 kts | 186° |
| 2026-05-03 22:31 | 37.93358 | -85.53080 | 3749 ft | 81 kts | 186° |
| 2026-05-03 22:31 | 37.92801 | -85.53064 | 3913 ft | 80 kts | 185° |
| 2026-05-03 22:32 | 37.92253 | -85.53083 | 4082 ft | 77 kts | 194° |
| 2026-05-03 22:32 | 37.91738 | -85.53175 | 4272 ft | 73 kts | 195° |
| 2026-05-03 22:32 | 37.91246 | -85.53259 | 4461 ft | 70 kts | 195° |
| 2026-05-03 22:32 | 37.90779 | -85.53332 | 4648 ft | 66 kts | 195° |
| 2026-05-03 22:33 | 37.90328 | -85.53389 | 4835 ft | 63 kts | 195° |
| 2026-05-03 22:33 | 37.89909 | -85.53429 | 5018 ft | 58 kts | 194° |
| 2026-05-03 22:33 | 37.89522 | -85.53445 | 5198 ft | 53 kts | 191° |
| 2026-05-03 22:33 | 37.89067 | -85.53346 | 5268 ft | 67 kts | 186° |
| 2026-05-03 22:34 | 37.88608 | -85.53345 | 5407 ft | 64 kts | 202° |
| 2026-05-03 22:34 | 37.88279 | -85.53640 | 5554 ft | 56 kts | 242° |
| 2026-05-03 22:34 | 37.88252 | -85.54201 | 5554 ft | 78 kts | 281° |
| 2026-05-03 22:34 | 37.88675 | -85.54779 | 5481 ft | 107 kts | 321° |
| 2026-05-03 22:35 | 37.89495 | -85.54999 | 5297 ft | 130 kts | 346° |
| 2026-05-03 22:35 | 37.90427 | -85.55065 | 5110 ft | 138 kts | 349° |
| 2026-05-03 22:35 | 37.91405 | -85.55061 | 4919 ft | 142 kts | 353° |
| 2026-05-03 22:35 | 37.92401 | -85.55042 | 4728 ft | 144 kts | 353° |
| 2026-05-03 22:36 | 37.93410 | -85.55028 | 4534 ft | 144 kts | 353° |
| 2026-05-03 22:36 | 37.94384 | -85.55019 | 4512 ft | 135 kts | 352° |
| 2026-05-03 22:36 | 37.95282 | -85.54993 | 4517 ft | 124 kts | 352° |
| 2026-05-03 22:36 | 37.96146 | -85.54959 | 4523 ft | 125 kts | 352° |
| 2026-05-03 22:37 | 37.97025 | -85.54924 | 4523 ft | 125 kts | 352° |
| 2026-05-03 22:37 | 37.97892 | -85.54892 | 4522 ft | 126 kts | 352° |
| 2026-05-03 22:37 | 37.98776 | -85.54863 | 4522 ft | 125 kts | 350° |
| 2026-05-03 22:37 | 37.99637 | -85.54907 | 4522 ft | 124 kts | 348° |
| 2026-05-03 22:38 | 38.00504 | -85.54965 | 4521 ft | 124 kts | 348° |
| 2026-05-03 22:38 | 38.01368 | -85.55026 | 4520 ft | 124 kts | 347° |
| 2026-05-03 22:38 | 38.02233 | -85.55129 | 4520 ft | 123 kts | 345° |
| 2026-05-03 22:38 | 38.03080 | -85.55245 | 4519 ft | 123 kts | 343° |
| 2026-05-03 22:39 | 38.03938 | -85.55390 | 4518 ft | 123 kts | 342° |
| 2026-05-03 22:39 | 38.04785 | -85.55535 | 4516 ft | 123 kts | 342° |
| 2026-05-03 22:39 | 38.05636 | -85.55683 | 4515 ft | 123 kts | 343° |
| 2026-05-03 22:39 | 38.06485 | -85.55834 | 4516 ft | 123 kts | 342° |
| 2026-05-03 22:40 | 38.07343 | -85.55988 | 4515 ft | 123 kts | 342° |
| 2026-05-03 22:40 | 38.08186 | -85.56134 | 4517 ft | 123 kts | 342° |
| 2026-05-03 22:40 | 38.09036 | -85.56281 | 4516 ft | 123 kts | 342° |
| 2026-05-03 22:40 | 38.09898 | -85.56423 | 4516 ft | 123 kts | 342° |
| 2026-05-03 22:41 | 38.10740 | -85.56567 | 4515 ft | 123 kts | 342° |
| 2026-05-03 22:41 | 38.11595 | -85.56708 | 4514 ft | 123 kts | 342° |
| 2026-05-03 22:41 | 38.12442 | -85.56840 | 4513 ft | 123 kts | 342° |
| 2026-05-03 22:41 | 38.13303 | -85.56978 | 4514 ft | 123 kts | 342° |
| 2026-05-03 22:42 | 38.14085 | -85.57288 | 4518 ft | 115 kts | 321° |
| 2026-05-03 22:42 | 38.14785 | -85.57800 | 4448 ft | 121 kts | 319° |
| 2026-05-03 22:42 | 38.15499 | -85.58359 | 4016 ft | 121 kts | 320° |
| 2026-05-03 22:42 | 38.16204 | -85.58929 | 3518 ft | 120 kts | 316° |
| 2026-05-03 22:43 | 38.16825 | -85.59605 | 3025 ft | 119 kts | 310° |
| 2026-05-03 22:43 | 38.17244 | -85.60428 | 2525 ft | 110 kts | 278° |
| 2026-05-03 22:43 | 38.17390 | -85.61352 | 2040 ft | 106 kts | 271° |
| 2026-05-03 22:43 | 38.17497 | -85.62157 | 2127 ft | 87 kts | 268° |
| 2026-05-03 22:44 | 38.17600 | -85.62948 | 2161 ft | 95 kts | 269° |
| 2026-05-03 22:44 | 38.17708 | -85.63822 | 2108 ft | 106 kts | 270° |
| 2026-05-03 22:44 | 38.17819 | -85.64779 | 1994 ft | 112 kts | 269° |
| 2026-05-03 22:44 | 38.17940 | -85.65774 | 1872 ft | 116 kts | 270° |
| 2026-05-03 22:45 | 38.18059 | -85.66804 | 1706 ft | 120 kts | 270° |
| 2026-05-03 22:45 | 38.18186 | -85.67854 | 1535 ft | 122 kts | 270° |
| 2026-05-03 22:45 | 38.18299 | -85.68906 | 1495 ft | 114 kts | 269° |
| 2026-05-03 22:45 | 38.18421 | -85.69882 | 1506 ft | 109 kts | 269° |
| 2026-05-03 22:46 | 38.18547 | -85.70822 | 1508 ft | 107 kts | 268° |
| 2026-05-03 22:46 | 38.18675 | -85.71752 | 1505 ft | 106 kts | 271° |
| 2026-05-03 22:46 | 38.18800 | -85.72680 | 1504 ft | 107 kts | 271° |
| 2026-05-03 22:46 | 38.18921 | -85.73612 | 1508 ft | 106 kts | 269° |
| 2026-05-03 22:47 | 38.19041 | -85.74534 | 1505 ft | 106 kts | 270° |
| 2026-05-03 22:47 | 38.19159 | -85.75469 | 1505 ft | 106 kts | 270° |
| 2026-05-03 22:47 | 38.19275 | -85.76382 | 1503 ft | 105 kts | 269° |
| 2026-05-03 22:47 | 38.19400 | -85.77306 | 1508 ft | 105 kts | 268° |
| 2026-05-03 22:48 | 38.19522 | -85.78234 | 1509 ft | 106 kts | 269° |
| 2026-05-03 22:48 | 38.19618 | -85.79144 | 1507 ft | 101 kts | 255° |
| 2026-05-03 22:48 | 38.19241 | -85.79830 | 1512 ft | 98 kts | 208° |
| 2026-05-03 22:48 | 38.18551 | -85.79879 | 1517 ft | 104 kts | 176° |
| 2026-05-03 22:49 | 38.17846 | -85.79879 | 1504 ft | 100 kts | 205° |
| 2026-05-03 22:49 | 38.17398 | -85.80531 | 1498 ft | 102 kts | 248° |
| 2026-05-03 22:49 | 38.17377 | -85.81441 | 1499 ft | 105 kts | 266° |
| 2026-05-03 22:49 | 38.17464 | -85.82375 | 1507 ft | 105 kts | 266° |
| 2026-05-03 22:50 | 38.17238 | -85.83175 | 1510 ft | 97 kts | 221° |
| 2026-05-03 22:50 | 38.16588 | -85.83401 | 1514 ft | 102 kts | 185° |
| 2026-05-03 22:50 | 38.15875 | -85.83307 | 1508 ft | 105 kts | 179° |
| 2026-05-03 22:50 | 38.15185 | -85.82935 | 1512 ft | 118 kts | 145° |
| 2026-05-03 22:51 | 38.14869 | -85.81924 | 1510 ft | 135 kts | 99° |
| 2026-05-03 22:51 | 38.15170 | -85.80775 | 1512 ft | 143 kts | 54° |
| 2026-05-03 22:51 | 38.15984 | -85.80100 | 1515 ft | 138 kts | 8° |
| 2026-05-03 22:51 | 38.16922 | -85.79945 | 1506 ft | 134 kts | 358° |
| 2026-05-03 22:52 | 38.17837 | -85.79830 | 1500 ft | 127 kts | 358° |
| 2026-05-03 22:52 | 38.18701 | -85.79719 | 1506 ft | 124 kts | 357° |
| 2026-05-03 22:52 | 38.19554 | -85.79617 | 1506 ft | 122 kts | 358° |
| 2026-05-03 22:52 | 38.20397 | -85.79517 | 1504 ft | 121 kts | 356° |
| 2026-05-03 22:53 | 38.21241 | -85.79413 | 1506 ft | 120 kts | 358° |
| 2026-05-03 22:53 | 38.22063 | -85.79308 | 1508 ft | 118 kts | 359° |
| 2026-05-03 22:53 | 38.22889 | -85.79200 | 1505 ft | 117 kts | 357° |
| 2026-05-03 22:53 | 38.23692 | -85.79085 | 1505 ft | 115 kts | 359° |
| 2026-05-03 22:54 | 38.24482 | -85.78974 | 1507 ft | 114 kts | 358° |
| 2026-05-03 22:54 | 38.25272 | -85.78857 | 1502 ft | 115 kts | 2° |
| 2026-05-03 22:54 | 38.25979 | -85.78352 | 1505 ft | 119 kts | 47° |
| 2026-05-03 22:54 | 38.26342 | -85.77434 | 1503 ft | 113 kts | 84° |
| 2026-05-03 22:55 | 38.26480 | -85.76470 | 1498 ft | 111 kts | 89° |
| 2026-05-03 22:55 | 38.26606 | -85.75492 | 1510 ft | 111 kts | 88° |
| 2026-05-03 22:55 | 38.26674 | -85.74526 | 1505 ft | 109 kts | 95° |
| 2026-05-03 22:55 | 38.26940 | -85.73599 | 1513 ft | 116 kts | 51° |
| 2026-05-03 22:56 | 38.27539 | -85.72922 | 1522 ft | 115 kts | 47° |
| 2026-05-03 22:56 | 38.27880 | -85.72040 | 1533 ft | 111 kts | 84° |
| 2026-05-03 22:56 | 38.28015 | -85.71074 | 1538 ft | 110 kts | 88° |
| 2026-05-03 22:56 | 38.28239 | -85.70203 | 1580 ft | 109 kts | 44° |
| 2026-05-03 22:57 | 38.28895 | -85.70110 | 1623 ft | 92 kts | 306° |
| 2026-05-03 22:57 | 38.29194 | -85.70830 | 1662 ft | 93 kts | 276° |
| 2026-05-03 22:57 | 38.29360 | -85.71584 | 1774 ft | 90 kts | 268° |
| 2026-05-03 22:57 | 38.29224 | -85.72321 | 1873 ft | 81 kts | 226° |
| 2026-05-03 22:58 | 38.28735 | -85.72755 | 1821 ft | 94 kts | 212° |
| 2026-05-03 22:58 | 38.28142 | -85.73136 | 1801 ft | 97 kts | 206° |
| 2026-05-03 22:58 | 38.27505 | -85.73418 | 1787 ft | 99 kts | 201° |
| 2026-05-03 22:58 | 38.26832 | -85.73676 | 1771 ft | 99 kts | 199° |
| 2026-05-03 22:59 | 38.26000 | -85.73801 | 1786 ft | 101 kts | 188° |
| 2026-05-03 22:59 | 38.25280 | -85.73830 | 1709 ft | 104 kts | 193° |
| 2026-05-03 22:59 | 38.24599 | -85.74134 | 1641 ft | 102 kts | 208° |
| 2026-05-03 22:59 | 38.23930 | -85.74454 | 1616 ft | 102 kts | 195° |
| 2026-05-03 23:00 | 38.23235 | -85.74506 | 1481 ft | 94 kts | 185° |
| 2026-05-03 23:00 | 38.22671 | -85.74407 | 1316 ft | 72 kts | 182° |
| 2026-05-03 23:00 | 38.22260 | -85.74302 | 1247 ft | 56 kts | 179° |
| 2026-05-03 23:00 | 38.21885 | -85.74219 | 1169 ft | 54 kts | 178° |
| 2026-05-03 23:01 | 38.21466 | -85.74050 | 1104 ft | 69 kts | 174° |
| 2026-05-03 23:01 | 38.21005 | -85.73883 | 1087 ft | 70 kts | 177° |
| 2026-05-03 23:01 | 38.20521 | -85.73737 | 983 ft | 71 kts | 174° |
| 2026-05-03 23:01 | 38.20043 | -85.73581 | 858 ft | 69 kts | 175° |
| 2026-05-03 23:02 | 38.19577 | -85.73428 | 716 ft | 67 kts | 172° |
| 2026-05-03 23:02 | 38.19142 | -85.73269 | 621 ft | 63 kts | 176° |
| 2026-05-03 23:02 | 38.18714 | -85.73122 | 528 ft | 62 kts | 175° |
| 2026-05-03 23:02 | 38.18329 | -85.72989 | 493 ft | 51 kts | 176° |
| 2026-05-03 23:03 | 38.18054 | -85.72908 | 486 ft | 29 kts | 172° |
| 2026-05-03 23:03 | 38.17878 | -85.72845 | 483 ft | 25 kts | 163° |
| 2026-05-03 23:03 | 38.17793 | -85.72789 | 482 ft | 13 kts | 114° |
| 2026-05-03 23:03 | 38.17799 | -85.72721 | 482 ft | 0 kts | 84° |
| 2026-05-03 23:04 | 38.17799 | -85.72701 | 482 ft | 0 kts | 93° |
| 2026-05-03 23:04 | 38.17799 | -85.72700 | 482 ft | 2 kts | 95° |
| 2026-05-03 23:04 | 38.17817 | -85.72572 | 482 ft | 13 kts | 6° |